Time,TemperatureF,DewpointF,PressureIn,WindDirection,WindDirectionDegrees,WindSpeedMPH,WindSpeedGustMPH,Humidity,HourlyPrecipIn,Conditions,Clouds,dailyrainin,SoftwareType,DateUTC
2013-01-18 00:01:00,28.7,25.6,30.37,NW,322,0.0,2.0,88,0.00,,---,0.09,VWS V14.01,2013-01-18 06:01:00,
2013-01-18 00:06:00,28.9,25.8,30.37,North,355,1.0,5.0,88,0.00,,---,0.00,VWS V14.01,2013-01-18 06:06:00,
2013-01-18 00:11:00,29.1,26.0,30.37,North,355,0.0,5.0,88,0.00,,---,0.00,VWS V14.01,2013-01-18 06:11:00,
2013-01-18 00:16:00,29.2,26.1,30.38,NNW,338,1.0,5.0,88,0.00,,---,0.00,VWS V14.01,2013-01-18 06:16:00,
2013-01-18 00:21:00,29.2,25.8,30.38,NNW,337,1.0,5.0,87,0.00,,---,0.00,VWS V14.01,2013-01-18 06:21:00,
2013-01-18 00:26:00,29.2,25.8,30.38,North,355,0.0,5.0,87,0.00,,---,0.00,VWS V14.01,2013-01-18 06:26:00,
2013-01-18 00:31:00,29.1,25.4,30.37,North,355,0.0,0.0,86,0.00,,---,0.00,VWS V14.01,2013-01-18 06:31:00,
2013-01-18 00:36:00,29.0,25.4,30.37,North,355,1.0,2.0,86,0.00,,---,0.00,VWS V14.01,2013-01-18 06:36:00,
2013-01-18 00:42:00,29.0,25.4,30.37,North,360,0.0,2.0,86,0.00,,---,0.00,VWS V14.01,2013-01-18 06:42:00,
2013-01-18 00:47:00,29.0,25.4,30.38,North,360,1.0,3.0,86,0.00,,---,0.00,VWS V14.01,2013-01-18 06:47:00,
2013-01-18 00:52:00,29.1,25.2,30.38,North,360,1.0,3.0,85,0.00,,---,0.00,VWS V14.01,2013-01-18 06:52:00,
2013-01-18 00:57:00,29.1,25.2,30.38,North,360,1.0,3.0,85,0.00,,---,0.00,VWS V14.01,2013-01-18 06:57:00,
2013-01-18 01:02:00,29.1,25.2,30.38,North,360,2.0,2.0,85,0.00,,---,0.00,VWS V14.01,2013-01-18 07:02:00,
2013-01-18 01:07:00,29.1,24.9,30.38,North,360,0.0,3.0,84,0.00,,---,0.00,VWS V14.01,2013-01-18 07:07:00,
2013-01-18 01:12:00,29.2,25.0,30.38,North,360,0.0,3.0,84,0.00,,---,0.00,VWS V14.01,2013-01-18 07:12:00,
2013-01-18 01:17:00,29.1,24.9,30.39,North,360,1.0,3.0,84,0.00,,---,0.00,VWS V14.01,2013-01-18 07:17:00,
2013-01-18 01:22:00,29.0,24.5,30.39,North,360,0.0,3.0,83,0.00,,---,0.00,VWS V14.01,2013-01-18 07:22:00,
2013-01-18 01:27:00,28.9,24.4,30.39,North,360,0.0,3.0,83,0.00,,---,0.00,VWS V14.01,2013-01-18 07:27:00,
2013-01-18 01:32:00,28.8,24.3,30.38,North,360,0.0,1.0,83,0.00,,---,0.00,VWS V14.01,2013-01-18 07:32:00,
2013-01-18 01:37:00,28.8,24.3,30.38,North,360,0.0,2.0,83,0.00,,---,0.00,VWS V14.01,2013-01-18 07:37:00,
2013-01-18 01:42:00,28.8,24.3,30.38,North,360,0.0,2.0,83,0.00,,---,0.00,VWS V14.01,2013-01-18 07:42:00,
2013-01-18 01:47:00,28.8,24.3,30.39,North,360,0.0,2.0,83,0.00,,---,0.00,VWS V14.01,2013-01-18 07:47:00,
2013-01-18 01:52:00,28.7,24.2,30.39,North,360,0.0,2.0,83,0.00,,---,0.00,VWS V14.01,2013-01-18 07:52:00,
2013-01-18 01:57:00,28.6,24.1,30.39,North,360,0.0,2.0,83,0.00,,---,0.00,VWS V14.01,2013-01-18 07:57:00,
2013-01-18 02:02:00,28.5,24.0,30.39,North,360,0.0,0.0,83,0.00,,---,0.00,VWS V14.01,2013-01-18 08:02:00,
2013-01-18 02:07:00,28.4,23.9,30.39,North,360,0.0,1.0,83,0.00,,---,0.00,VWS V14.01,2013-01-18 08:07:00,
2013-01-18 02:12:00,28.3,23.8,30.39,North,360,0.0,1.0,83,0.00,,---,0.00,VWS V14.01,2013-01-18 08:12:00,
2013-01-18 02:17:00,28.1,23.6,30.39,North,360,0.0,1.0,83,0.00,,---,0.00,VWS V14.01,2013-01-18 08:17:00,
2013-01-18 02:22:00,28.0,23.5,30.39,North,360,0.0,1.0,83,0.00,,---,0.00,VWS V14.01,2013-01-18 08:22:00,
2013-01-18 02:27:00,27.8,23.3,30.39,North,360,0.0,1.0,83,0.00,,---,0.00,VWS V14.01,2013-01-18 08:27:00,
2013-01-18 02:32:00,27.6,23.1,30.39,North,360,0.0,0.0,83,0.00,,---,0.00,VWS V14.01,2013-01-18 08:32:00,
2013-01-18 02:37:00,27.5,23.3,30.39,North,360,0.0,0.0,84,0.00,,---,0.00,VWS V14.01,2013-01-18 08:37:00,
2013-01-18 02:42:00,27.4,23.2,30.39,North,360,0.0,0.0,84,0.00,,---,0.00,VWS V14.01,2013-01-18 08:42:00,
2013-01-18 02:47:00,27.3,23.1,30.39,North,360,0.0,0.0,84,0.00,,---,0.00,VWS V14.01,2013-01-18 08:47:00,
2013-01-18 02:52:00,27.3,23.1,30.39,North,360,0.0,0.0,84,0.00,,---,0.00,VWS V14.01,2013-01-18 08:52:00,
2013-01-18 02:57:00,27.1,22.9,30.39,North,360,0.0,0.0,84,0.00,,---,0.00,VWS V14.01,2013-01-18 08:57:00,
2013-01-18 03:02:00,26.9,22.7,30.39,North,360,0.0,0.0,84,0.00,,---,0.00,VWS V14.01,2013-01-18 09:02:00,
2013-01-18 03:07:00,26.7,22.8,30.39,North,360,0.0,0.0,85,0.00,,---,0.00,VWS V14.01,2013-01-18 09:07:00,
2013-01-18 03:12:00,26.7,22.8,30.39,North,360,0.0,0.0,85,0.00,,---,0.00,VWS V14.01,2013-01-18 09:12:00,
2013-01-18 03:17:00,26.6,22.7,30.39,North,360,0.0,0.0,85,0.00,,---,0.00,VWS V14.01,2013-01-18 09:17:00,
2013-01-18 03:22:00,26.5,22.6,30.39,North,360,0.0,0.0,85,0.00,,---,0.00,VWS V14.01,2013-01-18 09:22:00,
2013-01-18 03:27:00,26.4,22.5,30.39,North,360,0.0,0.0,85,0.00,,---,0.00,VWS V14.01,2013-01-18 09:27:00,
2013-01-18 03:32:00,26.2,22.3,30.39,North,360,0.0,0.0,85,0.00,,---,0.00,VWS V14.01,2013-01-18 09:32:00,
2013-01-18 03:37:00,26.0,22.1,30.39,North,360,0.0,0.0,85,0.00,,---,0.00,VWS V14.01,2013-01-18 09:37:00,
2013-01-18 03:42:00,25.8,22.2,30.39,North,360,0.0,0.0,86,0.00,,---,0.00,VWS V14.01,2013-01-18 09:42:00,
2013-01-18 03:47:00,25.8,22.2,30.39,North,360,0.0,0.0,86,0.00,,---,0.00,VWS V14.01,2013-01-18 09:47:00,
2013-01-18 03:52:00,25.8,22.5,30.39,North,360,0.0,0.0,87,0.00,,---,0.00,VWS V14.01,2013-01-18 09:52:00,
2013-01-18 03:57:00,25.8,22.5,30.39,North,360,0.0,0.0,87,0.00,,---,0.00,VWS V14.01,2013-01-18 09:57:00,
2013-01-18 04:02:00,25.6,22.3,30.39,North,360,0.0,0.0,87,0.00,,---,0.00,VWS V14.01,2013-01-18 10:02:00,
2013-01-18 04:07:00,25.4,22.1,30.39,North,360,0.0,0.0,87,0.00,,---,0.00,VWS V14.01,2013-01-18 10:07:00,
2013-01-18 04:12:00,25.2,21.9,30.39,North,360,0.0,0.0,87,0.00,,---,0.00,VWS V14.01,2013-01-18 10:12:00,
2013-01-18 04:17:00,24.9,21.6,30.39,North,360,0.0,0.0,87,0.00,,---,0.00,VWS V14.01,2013-01-18 10:17:00,
2013-01-18 04:22:00,24.7,21.4,30.39,North,360,0.0,0.0,87,0.00,,---,0.00,VWS V14.01,2013-01-18 10:22:00,
2013-01-18 04:27:00,24.4,21.1,30.39,North,360,0.0,0.0,87,0.00,,---,0.00,VWS V14.01,2013-01-18 10:27:00,
2013-01-18 04:32:00,24.2,21.2,30.39,North,360,0.0,0.0,88,0.00,,---,0.00,VWS V14.01,2013-01-18 10:32:00,
2013-01-18 04:37:00,24.1,21.1,30.39,North,360,0.0,0.0,88,0.00,,---,0.00,VWS V14.01,2013-01-18 10:37:00,
2013-01-18 04:42:00,23.9,20.9,30.39,North,360,0.0,0.0,88,0.00,,---,0.00,VWS V14.01,2013-01-18 10:42:00,
2013-01-18 04:47:00,23.9,21.1,30.39,North,360,0.0,0.0,89,0.00,,---,0.00,VWS V14.01,2013-01-18 10:47:00,
2013-01-18 04:52:00,23.7,20.7,30.39,North,360,0.0,0.0,88,0.00,,---,0.00,VWS V14.01,2013-01-18 10:52:00,
2013-01-18 04:57:00,23.7,20.9,30.39,North,360,0.0,1.0,89,0.00,,---,0.00,VWS V14.01,2013-01-18 10:57:00,
2013-01-18 05:02:00,23.5,20.7,30.39,North,360,0.0,2.0,89,0.00,,---,0.00,VWS V14.01,2013-01-18 11:02:00,
2013-01-18 05:07:00,23.1,20.4,30.39,North,360,0.0,2.0,89,0.00,,---,0.00,VWS V14.01,2013-01-18 11:07:00,
2013-01-18 05:12:00,22.9,20.1,30.39,North,360,0.0,2.0,89,0.00,,---,0.00,VWS V14.01,2013-01-18 11:12:00,
2013-01-18 05:17:00,22.9,20.1,30.40,North,360,1.0,2.0,89,0.00,,---,0.00,VWS V14.01,2013-01-18 11:17:00,
2013-01-18 05:22:00,22.9,20.1,30.40,NNW,348,1.0,2.0,89,0.00,,---,0.00,VWS V14.01,2013-01-18 11:22:00,
2013-01-18 05:27:00,22.9,20.4,30.40,NNW,347,0.0,2.0,90,0.00,,---,0.00,VWS V14.01,2013-01-18 11:27:00,
2013-01-18 05:32:00,23.2,20.7,30.41,NNW,347,1.0,2.0,90,0.00,,---,0.00,VWS V14.01,2013-01-18 11:32:00,
2013-01-18 05:37:00,23.7,21.2,30.41,NNW,344,1.0,2.0,90,0.00,,---,0.00,VWS V14.01,2013-01-18 11:37:00,
2013-01-18 05:42:00,23.9,21.4,30.41,NNW,343,0.0,2.0,90,0.00,,---,0.00,VWS V14.01,2013-01-18 11:42:00,
2013-01-18 05:47:00,24.1,21.6,30.42,NNW,343,0.0,2.0,90,0.00,,---,0.00,VWS V14.01,2013-01-18 11:47:00,
2013-01-18 05:52:00,24.2,21.7,30.42,NNW,343,0.0,2.0,90,0.00,,---,0.00,VWS V14.01,2013-01-18 11:52:00,
2013-01-18 05:57:00,24.1,21.6,30.42,NNW,344,0.0,2.0,90,0.00,,---,0.00,VWS V14.01,2013-01-18 11:57:00,
2013-01-18 06:02:00,24.1,21.6,30.42,NNW,344,0.0,0.0,90,0.00,,---,0.00,VWS V14.01,2013-01-18 12:02:00,
2013-01-18 06:07:00,24.0,21.5,30.42,NNW,344,0.0,0.0,90,0.00,,---,0.00,VWS V14.01,2013-01-18 12:07:00,
2013-01-18 06:12:00,23.8,21.3,30.42,NNW,343,0.0,0.0,90,0.00,,---,0.00,VWS V14.01,2013-01-18 12:12:00,
2013-01-18 06:17:00,23.7,21.2,30.42,NNW,343,0.0,0.0,90,0.00,,---,0.00,VWS V14.01,2013-01-18 12:17:00,
2013-01-18 06:22:00,23.6,21.1,30.42,NNW,344,0.0,0.0,90,0.00,,---,0.00,VWS V14.01,2013-01-18 12:22:00,
2013-01-18 06:27:00,23.6,21.1,30.42,NNW,343,0.0,0.0,90,0.00,,---,0.00,VWS V14.01,2013-01-18 12:27:00,
2013-01-18 06:32:00,23.4,20.9,30.42,NNW,343,0.0,0.0,90,0.00,,---,0.00,VWS V14.01,2013-01-18 12:32:00,
2013-01-18 06:37:00,23.3,20.8,30.42,NNW,343,0.0,0.0,90,0.00,,---,0.00,VWS V14.01,2013-01-18 12:37:00,
2013-01-18 06:42:00,23.1,20.4,30.42,NNW,344,0.0,1.0,89,0.00,,---,0.00,VWS V14.01,2013-01-18 12:42:00,
2013-01-18 06:47:00,22.8,20.3,30.42,NNW,344,0.0,1.0,90,0.00,,---,0.00,VWS V14.01,2013-01-18 12:47:00,
2013-01-18 06:52:00,22.7,20.2,30.42,NNW,343,0.0,1.0,90,0.00,,---,0.00,VWS V14.01,2013-01-18 12:52:00,
2013-01-18 06:57:00,22.6,20.1,30.42,NNW,344,0.0,1.0,90,0.00,,---,0.00,VWS V14.01,2013-01-18 12:57:00,
2013-01-18 07:02:00,22.5,20.0,30.42,NNW,343,0.0,0.0,90,0.00,,---,0.00,VWS V14.01,2013-01-18 13:02:00,
2013-01-18 07:07:00,22.4,19.9,30.42,NNW,343,0.0,0.0,90,0.00,,---,0.00,VWS V14.01,2013-01-18 13:07:00,
2013-01-18 07:12:00,22.3,19.8,30.42,NNW,344,0.0,0.0,90,0.00,,---,0.00,VWS V14.01,2013-01-18 13:12:00,
2013-01-18 07:17:00,22.1,19.6,30.43,North,360,0.0,0.0,90,0.00,,---,0.00,VWS V14.01,2013-01-18 13:17:00,
2013-01-18 07:22:00,22.0,19.5,30.43,NNW,342,0.0,0.0,90,0.00,,---,0.00,VWS V14.01,2013-01-18 13:22:00,
2013-01-18 07:27:00,22.1,19.6,30.43,NNW,344,0.0,0.0,90,0.00,,---,0.00,VWS V14.01,2013-01-18 13:27:00,
2013-01-18 07:32:00,22.5,20.3,30.42,NNW,344,0.0,0.0,91,0.00,,---,0.00,VWS V14.01,2013-01-18 13:32:00,
2013-01-18 07:37:00,22.9,20.7,30.42,NNW,343,0.0,0.0,91,0.00,,---,0.00,VWS V14.01,2013-01-18 13:37:00,
2013-01-18 07:42:00,23.2,21.0,30.42,NNW,343,0.0,0.0,91,0.00,,---,0.00,VWS V14.01,2013-01-18 13:42:00,
2013-01-18 07:47:00,23.5,21.3,30.43,NNW,344,0.0,0.0,91,0.00,,---,0.00,VWS V14.01,2013-01-18 13:47:00,
2013-01-18 07:52:00,23.6,21.4,30.43,NNW,342,0.0,0.0,91,0.00,,---,0.00,VWS V14.01,2013-01-18 13:52:00,
2013-01-18 07:57:00,23.8,21.6,30.43,NNW,344,0.0,0.0,91,0.00,,---,0.00,VWS V14.01,2013-01-18 13:57:00,
2013-01-18 08:02:00,24.0,21.8,30.43,NNW,343,0.0,0.0,91,0.00,,---,0.00,VWS V14.01,2013-01-18 14:02:00,
2013-01-18 08:07:00,24.3,22.1,30.43,NNW,342,0.0,0.0,91,0.00,,---,0.00,VWS V14.01,2013-01-18 14:07:00,
2013-01-18 08:12:00,24.6,22.4,30.43,NNW,342,0.0,0.0,91,0.00,,---,0.00,VWS V14.01,2013-01-18 14:12:00,
2013-01-18 08:17:00,25.0,22.8,30.44,NNW,344,0.0,0.0,91,0.00,,---,0.00,VWS V14.01,2013-01-18 14:17:00,
2013-01-18 08:22:00,25.4,23.1,30.44,NNW,342,0.0,0.0,91,0.00,,---,0.00,VWS V14.01,2013-01-18 14:22:00,
2013-01-18 08:27:00,26.1,24.1,30.44,NNW,342,0.0,0.0,92,0.00,,---,0.00,VWS V14.01,2013-01-18 14:27:00,
2013-01-18 08:32:00,26.7,24.7,30.45,NNW,344,0.0,0.0,92,0.00,,---,0.00,VWS V14.01,2013-01-18 14:32:00,
2013-01-18 08:37:00,27.3,25.0,30.45,NNW,344,0.0,0.0,91,0.00,,---,0.00,VWS V14.01,2013-01-18 14:37:00,
2013-01-18 08:42:00,27.8,25.5,30.45,NNW,344,0.0,0.0,91,0.00,,---,0.00,VWS V14.01,2013-01-18 14:42:00,
2013-01-18 08:47:00,28.3,26.0,30.45,NNW,342,0.0,0.0,91,0.00,,---,0.00,VWS V14.01,2013-01-18 14:47:00,
2013-01-18 08:52:00,28.9,26.3,30.45,NNW,343,0.0,1.0,90,0.00,,---,0.00,VWS V14.01,2013-01-18 14:52:00,
2013-01-18 08:57:00,29.4,26.6,30.45,NNW,343,0.0,1.0,89,0.00,,---,0.00,VWS V14.01,2013-01-18 14:57:00,
2013-01-18 09:02:00,30.4,27.5,30.45,SSW,201,3.0,3.0,89,0.00,,---,0.00,VWS V14.01,2013-01-18 15:02:00,
2013-01-18 09:07:00,31.3,27.3,30.45,SSE,158,2.0,4.0,85,0.00,,---,0.00,VWS V14.01,2013-01-18 15:07:00,
2013-01-18 09:12:00,31.9,27.3,30.45,South,170,0.0,4.0,83,0.00,,---,0.00,VWS V14.01,2013-01-18 15:12:00,
2013-01-18 09:17:00,32.4,27.5,30.46,South,171,0.0,4.0,82,0.00,,---,0.00,VWS V14.01,2013-01-18 15:17:00,
2013-01-18 09:22:00,32.8,27.0,30.46,SSE,164,0.0,4.0,79,0.00,,---,0.00,VWS V14.01,2013-01-18 15:22:00,
2013-01-18 09:27:00,33.3,27.2,30.46,SSE,163,0.0,4.0,78,0.00,,---,0.00,VWS V14.01,2013-01-18 15:27:00,
2013-01-18 09:32:00,34.0,27.6,30.46,ESE,114,0.0,0.0,77,0.00,,---,0.00,VWS V14.01,2013-01-18 15:32:00,
2013-01-18 09:37:00,34.3,26.9,30.46,SSE,157,4.0,6.0,74,0.00,,---,0.00,VWS V14.01,2013-01-18 15:37:00,
2013-01-18 09:42:00,34.4,27.0,30.46,SSE,159,3.0,7.0,74,0.00,,---,0.00,VWS V14.01,2013-01-18 15:42:00,
2013-01-18 09:47:00,34.5,26.4,30.45,South,171,2.0,7.0,72,0.00,,---,0.00,VWS V14.01,2013-01-18 15:47:00,
2013-01-18 09:52:00,35.0,26.9,30.45,SSW,208,3.0,7.0,72,0.00,,---,0.00,VWS V14.01,2013-01-18 15:52:00,
2013-01-18 09:57:00,35.2,26.8,30.45,SSW,198,2.0,7.0,71,0.00,,---,0.00,VWS V14.01,2013-01-18 15:57:00,
2013-01-18 10:02:00,35.5,26.7,30.45,ESE,110,0.0,3.0,70,0.00,,---,0.00,VWS V14.01,2013-01-18 16:02:00,
2013-01-18 10:07:00,36.0,26.8,30.45,SE,144,0.0,11.0,69,0.00,,---,0.00,VWS V14.01,2013-01-18 16:07:00,
2013-01-18 10:12:00,36.2,26.7,30.45,SE,138,1.0,11.0,68,0.00,,---,0.00,VWS V14.01,2013-01-18 16:12:00,
2013-01-18 10:17:00,36.4,26.9,30.45,SE,132,0.0,11.0,68,0.00,,---,0.00,VWS V14.01,2013-01-18 16:17:00,
2013-01-18 10:22:00,37.1,27.9,30.45,South,177,2.0,11.0,69,0.00,,---,0.00,VWS V14.01,2013-01-18 16:22:00,
2013-01-18 10:27:00,37.4,27.1,30.45,SW,217,2.0,11.0,66,0.00,,---,0.00,VWS V14.01,2013-01-18 16:27:00,
2013-01-18 10:32:00,37.1,26.8,30.44,South,169,2.0,2.0,66,0.00,,---,0.00,VWS V14.01,2013-01-18 16:32:00,
2013-01-18 10:37:00,37.5,27.5,30.44,South,177,0.0,4.0,67,0.00,,---,0.00,VWS V14.01,2013-01-18 16:37:00,
2013-01-18 10:42:00,37.7,27.0,30.44,SSW,200,2.0,9.0,65,0.00,,---,0.00,VWS V14.01,2013-01-18 16:42:00,
2013-01-18 10:47:00,38.0,27.3,30.43,South,184,2.0,9.0,65,0.00,,---,0.00,VWS V14.01,2013-01-18 16:47:00,
2013-01-18 10:52:00,38.2,27.1,30.43,SSW,199,3.0,9.0,64,0.00,,---,0.00,VWS V14.01,2013-01-18 16:52:00,
2013-01-18 10:57:00,38.6,27.1,30.43,SSE,155,2.0,9.0,63,0.00,,---,0.00,VWS V14.01,2013-01-18 16:57:00,
2013-01-18 11:02:00,39.1,28.0,30.43,WSW,238,1.0,1.0,64,0.00,,---,0.00,VWS V14.01,2013-01-18 17:02:00,
2013-01-18 11:07:00,39.4,27.9,30.43,SSE,155,5.0,5.0,63,0.00,,---,0.00,VWS V14.01,2013-01-18 17:07:00,
2013-01-18 11:12:00,39.6,27.3,30.43,South,184,1.0,5.0,61,0.00,,---,0.00,VWS V14.01,2013-01-18 17:12:00,
2013-01-18 11:17:00,39.4,27.5,30.42,SW,229,0.0,6.0,62,0.00,,---,0.00,VWS V14.01,2013-01-18 17:17:00,
2013-01-18 11:22:00,39.7,27.8,30.42,WSW,246,5.0,6.0,62,0.00,,---,0.00,VWS V14.01,2013-01-18 17:22:00,
2013-01-18 11:27:00,39.7,27.8,30.42,SSE,161,3.0,7.0,62,0.00,,---,0.00,VWS V14.01,2013-01-18 17:27:00,
2013-01-18 11:32:00,40.0,28.0,30.41,SSE,154,4.0,5.0,62,0.00,,---,0.00,VWS V14.01,2013-01-18 17:32:00,
2013-01-18 11:37:00,40.5,28.5,30.41,SW,222,3.0,6.0,62,0.00,,---,0.00,VWS V14.01,2013-01-18 17:37:00,
2013-01-18 11:42:00,40.7,28.7,30.41,WSW,240,2.0,6.0,62,0.00,,---,0.00,VWS V14.01,2013-01-18 17:42:00,
2013-01-18 11:47:00,41.1,28.7,30.40,South,188,0.0,6.0,61,0.00,,---,0.00,VWS V14.01,2013-01-18 17:47:00,
2013-01-18 11:52:00,41.7,28.9,30.40,SW,236,1.0,6.0,60,0.00,,---,0.00,VWS V14.01,2013-01-18 17:52:00,
2013-01-18 11:57:00,41.8,29.0,30.40,SSE,164,4.0,7.0,60,0.00,,---,0.00,VWS V14.01,2013-01-18 17:57:00,
2013-01-18 12:02:00,41.9,28.6,30.39,SSE,163,0.0,3.0,59,0.00,,---,0.00,VWS V14.01,2013-01-18 18:02:00,
2013-01-18 12:07:00,42.6,29.3,30.39,SE,138,0.0,7.0,59,0.00,,---,0.00,VWS V14.01,2013-01-18 18:07:00,
2013-01-18 12:12:00,43.4,29.2,30.39,SW,219,5.0,7.0,57,0.00,,---,0.00,VWS V14.01,2013-01-18 18:12:00,
2013-01-18 12:17:00,43.5,29.3,30.37,South,183,0.0,7.0,57,0.00,,---,0.00,VWS V14.01,2013-01-18 18:17:00,
2013-01-18 12:22:00,43.3,29.5,30.37,South,179,6.0,10.0,58,0.00,,---,0.00,VWS V14.01,2013-01-18 18:22:00,
2013-01-18 12:27:00,43.5,30.1,30.37,SW,221,0.0,10.0,59,0.00,,---,0.00,VWS V14.01,2013-01-18 18:27:00,
2013-01-18 12:32:00,43.3,29.1,30.36,SSE,148,0.0,5.0,57,0.00,,---,0.00,VWS V14.01,2013-01-18 18:32:00,
2013-01-18 12:37:00,43.4,29.6,30.36,SSW,208,0.0,5.0,58,0.00,,---,0.00,VWS V14.01,2013-01-18 18:37:00,
2013-01-18 12:42:00,43.8,29.6,30.36,SW,227,4.0,7.0,57,0.00,,---,0.00,VWS V14.01,2013-01-18 18:42:00,
2013-01-18 12:47:00,43.9,29.7,30.35,SE,130,3.0,7.0,57,0.00,,---,0.00,VWS V14.01,2013-01-18 18:47:00,
2013-01-18 12:52:00,44.4,29.7,30.35,SW,221,3.0,7.0,56,0.00,,---,0.00,VWS V14.01,2013-01-18 18:52:00,
2013-01-18 12:57:00,44.7,29.1,30.35,West,265,1.0,7.0,54,0.00,,---,0.00,VWS V14.01,2013-01-18 18:57:00,
2013-01-18 13:02:00,45.1,29.9,30.34,South,188,1.0,2.0,55,0.00,,---,0.00,VWS V14.01,2013-01-18 19:02:00,
2013-01-18 13:07:00,45.7,30.5,30.34,South,173,1.0,7.0,55,0.00,,---,0.00,VWS V14.01,2013-01-18 19:07:00,
2013-01-18 13:12:00,45.9,30.2,30.34,SW,223,5.0,9.0,54,0.00,,---,0.00,VWS V14.01,2013-01-18 19:12:00,
2013-01-18 13:17:00,45.7,30.5,30.34,SW,220,0.0,11.0,55,0.00,,---,0.00,VWS V14.01,2013-01-18 19:17:00,
2013-01-18 13:22:00,45.8,30.1,30.34,SW,229,3.0,11.0,54,0.00,,---,0.00,VWS V14.01,2013-01-18 19:22:00,
2013-01-18 13:27:00,46.1,29.9,30.34,SSE,167,2.0,11.0,53,0.00,,---,0.00,VWS V14.01,2013-01-18 19:27:00,
2013-01-18 13:32:00,46.2,29.6,30.33,SSW,209,5.0,8.0,52,0.00,,---,0.00,VWS V14.01,2013-01-18 19:32:00,
2013-01-18 13:37:00,46.6,30.4,30.33,SW,217,2.0,8.0,53,0.00,,---,0.00,VWS V14.01,2013-01-18 19:37:00,
2013-01-18 13:42:00,46.9,30.7,30.33,SSW,213,7.0,10.0,53,0.00,,---,0.00,VWS V14.01,2013-01-18 19:42:00,
2013-01-18 13:47:00,47.1,29.9,30.33,SW,225,7.0,10.0,51,0.00,,---,0.00,VWS V14.01,2013-01-18 19:47:00,
2013-01-18 13:52:00,46.8,30.1,30.33,WSW,245,3.0,10.0,52,0.00,,---,0.00,VWS V14.01,2013-01-18 19:52:00,
2013-01-18 13:57:00,46.7,30.5,30.33,South,185,3.0,10.0,53,0.00,,---,0.00,VWS V14.01,2013-01-18 19:57:00,
2013-01-18 14:02:00,47.0,30.3,30.32,South,189,4.0,4.0,52,0.00,,---,0.00,VWS V14.01,2013-01-18 20:02:00,
2013-01-18 14:07:00,47.3,30.6,30.32,SSW,212,2.0,11.0,52,0.00,,---,0.00,VWS V14.01,2013-01-18 20:07:00,
2013-01-18 14:12:00,47.4,30.7,30.32,SSW,209,1.0,11.0,52,0.00,,---,0.00,VWS V14.01,2013-01-18 20:12:00,
2013-01-18 14:17:00,47.8,31.0,30.31,South,184,3.0,11.0,52,0.00,,---,0.00,VWS V14.01,2013-01-18 20:17:00,
2013-01-18 14:22:00,47.6,30.9,30.31,ESE,121,3.0,14.0,52,0.00,,---,0.00,VWS V14.01,2013-01-18 20:22:00,
2013-01-18 14:27:00,47.8,29.6,30.31,SSE,159,6.0,14.0,49,0.00,,---,0.00,VWS V14.01,2013-01-18 20:27:00,
2013-01-18 14:32:00,47.8,29.6,30.31,SSW,212,1.0,7.0,49,0.00,,---,0.00,VWS V14.01,2013-01-18 20:32:00,
2013-01-18 14:37:00,47.9,30.7,30.31,SW,232,1.0,7.0,51,0.00,,---,0.00,VWS V14.01,2013-01-18 20:37:00,
2013-01-18 14:42:00,48.2,30.9,30.31,SE,144,5.0,12.0,51,0.00,,---,0.00,VWS V14.01,2013-01-18 20:42:00,
2013-01-18 14:47:00,48.0,30.8,30.30,SW,235,3.0,12.0,51,0.00,,---,0.00,VWS V14.01,2013-01-18 20:47:00,
2013-01-18 14:52:00,48.2,29.5,30.30,WSW,246,5.0,14.0,48,0.00,,---,0.00,VWS V14.01,2013-01-18 20:52:00,
2013-01-18 14:57:00,48.1,29.9,30.30,WSW,245,0.0,14.0,49,0.00,,---,0.00,VWS V14.01,2013-01-18 20:57:00,
2013-01-18 15:02:00,48.4,29.6,30.29,West,266,5.0,10.0,48,0.00,,---,0.00,VWS V14.01,2013-01-18 21:02:00,
2013-01-18 15:07:00,48.4,29.6,30.29,SW,225,6.0,10.0,48,0.00,,---,0.00,VWS V14.01,2013-01-18 21:07:00,
2013-01-18 15:12:00,48.3,29.5,30.29,WSW,237,4.0,10.0,48,0.00,,---,0.00,VWS V14.01,2013-01-18 21:12:00,
2013-01-18 15:17:00,48.3,30.0,30.29,SSW,206,3.0,10.0,49,0.00,,---,0.00,VWS V14.01,2013-01-18 21:17:00,
2013-01-18 15:22:00,48.4,29.6,30.29,South,174,9.0,10.0,48,0.00,,---,0.00,VWS V14.01,2013-01-18 21:22:00,
2013-01-18 15:27:00,48.3,29.5,30.29,South,184,2.0,10.0,48,0.00,,---,0.00,VWS V14.01,2013-01-18 21:27:00,
2013-01-18 15:32:00,48.3,30.0,30.28,SSE,150,0.0,7.0,49,0.00,,---,0.00,VWS V14.01,2013-01-18 21:32:00,
2013-01-18 15:37:00,48.4,30.1,30.28,SW,229,7.0,9.0,49,0.00,,---,0.00,VWS V14.01,2013-01-18 21:37:00,
2013-01-18 15:42:00,48.2,30.0,30.28,South,173,8.0,12.0,49,0.00,,---,0.00,VWS V14.01,2013-01-18 21:42:00,
2013-01-18 15:47:00,48.2,30.0,30.28,SSE,148,5.0,12.0,49,0.00,,---,0.00,VWS V14.01,2013-01-18 21:47:00,
2013-01-18 15:52:00,48.1,29.9,30.28,SSW,192,5.0,12.0,49,0.00,,---,0.00,VWS V14.01,2013-01-18 21:52:00,
2013-01-18 15:57:00,48.2,30.0,30.28,SSW,203,1.0,12.0,49,0.00,,---,0.00,VWS V14.01,2013-01-18 21:57:00,
2013-01-18 16:02:00,48.0,30.3,30.27,SSW,208,3.0,3.0,50,0.00,,---,0.00,VWS V14.01,2013-01-18 22:02:00,
2013-01-18 16:07:00,47.9,30.2,30.27,SSE,153,4.0,12.0,50,0.00,,---,0.00,VWS V14.01,2013-01-18 22:07:00,
2013-01-18 16:12:00,47.8,30.1,30.27,South,175,2.0,12.0,50,0.00,,---,0.00,VWS V14.01,2013-01-18 22:12:00,
2013-01-18 16:17:00,47.6,29.9,30.27,SE,129,3.0,12.0,50,0.00,,---,0.00,VWS V14.01,2013-01-18 22:17:00,
2013-01-18 16:22:00,47.4,29.7,30.27,South,180,3.0,12.0,50,0.00,,---,0.00,VWS V14.01,2013-01-18 22:22:00,
2013-01-18 16:27:00,47.2,29.5,30.27,SSE,147,2.0,12.0,50,0.00,,---,0.00,VWS V14.01,2013-01-18 22:27:00,
2013-01-18 16:32:00,47.1,29.9,30.27,West,275,3.0,5.0,51,0.00,,---,0.00,VWS V14.01,2013-01-18 22:32:00,
2013-01-18 16:37:00,46.9,29.7,30.27,South,184,0.0,7.0,51,0.00,,---,0.00,VWS V14.01,2013-01-18 22:37:00,
2013-01-18 16:42:00,46.7,29.5,30.27,South,170,0.0,7.0,51,0.00,,---,0.00,VWS V14.01,2013-01-18 22:42:00,
2013-01-18 16:47:00,46.4,29.3,30.27,South,189,1.0,7.0,51,0.00,,---,0.00,VWS V14.01,2013-01-18 22:47:00,
2013-01-18 16:52:00,46.2,29.1,30.27,SSE,159,2.0,7.0,51,0.00,,---,0.00,VWS V14.01,2013-01-18 22:52:00,
2013-01-18 16:57:00,45.8,29.2,30.27,SSE,161,0.0,7.0,52,0.00,,---,0.00,VWS V14.01,2013-01-18 22:57:00,
2013-01-18 17:02:00,45.4,28.8,30.26,South,177,3.0,3.0,52,0.00,,---,0.00,VWS V14.01,2013-01-18 23:02:00,
2013-01-18 17:07:00,45.1,28.5,30.26,SSE,168,2.0,6.0,52,0.00,,---,0.00,VWS V14.01,2013-01-18 23:07:00,
2013-01-18 17:12:00,45.0,28.9,30.26,South,171,0.0,8.0,53,0.00,,---,0.00,VWS V14.01,2013-01-18 23:12:00,
2013-01-18 17:17:00,44.7,28.6,30.26,South,176,0.0,8.0,53,0.00,,---,0.00,VWS V14.01,2013-01-18 23:17:00,
2013-01-18 17:22:00,44.5,28.5,30.26,SSE,153,0.0,8.0,53,0.00,,---,0.00,VWS V14.01,2013-01-18 23:22:00,
2013-01-18 17:27:00,44.2,28.2,30.26,SSE,164,2.0,8.0,53,0.00,,---,0.00,VWS V14.01,2013-01-18 23:27:00,
2013-01-18 17:32:00,44.1,28.1,30.26,SSE,164,0.0,0.0,53,0.00,,---,0.00,VWS V14.01,2013-01-18 23:32:00,
2013-01-18 17:37:00,43.9,27.9,30.26,SSE,164,0.0,3.0,53,0.00,,---,0.00,VWS V14.01,2013-01-18 23:37:00,
2013-01-18 17:42:00,43.6,28.1,30.26,SSE,160,3.0,4.0,54,0.00,,---,0.00,VWS V14.01,2013-01-18 23:42:00,
2013-01-18 17:47:00,43.3,27.8,30.26,South,175,3.0,5.0,54,0.00,,---,0.00,VWS V14.01,2013-01-18 23:47:00,
2013-01-18 17:52:00,43.2,27.7,30.26,SSE,166,1.0,5.0,54,0.00,,---,0.00,VWS V14.01,2013-01-18 23:52:00,
2013-01-18 17:57:00,43.1,28.0,30.26,SSE,156,0.0,5.0,55,0.00,,---,0.00,VWS V14.01,2013-01-18 23:57:00,
2013-01-18 18:02:00,42.9,27.9,30.26,SSE,160,1.0,1.0,55,0.00,,---,0.00,VWS V14.01,2013-01-19 00:02:00,
2013-01-18 18:07:00,42.7,27.7,30.26,SSE,168,0.0,3.0,55,0.00,,---,0.00,VWS V14.01,2013-01-19 00:07:00,
2013-01-18 18:12:00,42.5,27.5,30.26,SSE,160,0.0,3.0,55,0.00,,---,0.00,VWS V14.01,2013-01-19 00:12:00,
2013-01-18 18:17:00,42.3,27.7,30.26,SSE,161,0.0,3.0,56,0.00,,---,0.00,VWS V14.01,2013-01-19 00:17:00,
2013-01-18 18:22:00,42.1,27.5,30.26,South,175,2.0,5.0,56,0.00,,---,0.00,VWS V14.01,2013-01-19 00:22:00,
2013-01-18 18:27:00,42.0,27.5,30.26,SSE,162,0.0,5.0,56,0.00,,---,0.00,VWS V14.01,2013-01-19 00:27:00,
2013-01-18 18:32:00,42.0,27.5,30.25,South,181,2.0,4.0,56,0.00,,---,0.00,VWS V14.01,2013-01-19 00:32:00,
2013-01-18 18:37:00,42.0,27.5,30.25,South,176,0.0,6.0,56,0.00,,---,0.00,VWS V14.01,2013-01-19 00:37:00,
2013-01-18 18:42:00,41.9,27.4,30.25,South,173,3.0,6.0,56,0.00,,---,0.00,VWS V14.01,2013-01-19 00:42:00,
2013-01-18 18:47:00,41.9,27.4,30.25,SSE,150,0.0,6.0,56,0.00,,---,0.00,VWS V14.01,2013-01-19 00:47:00,
2013-01-18 18:52:00,41.8,27.3,30.25,SSE,168,0.0,6.0,56,0.00,,---,0.00,VWS V14.01,2013-01-19 00:52:00,
2013-01-18 18:58:00,41.5,27.0,30.25,South,169,0.0,6.0,56,0.00,,---,0.00,VWS V14.01,2013-01-19 00:58:00,
2013-01-18 19:03:00,41.4,26.9,30.25,South,183,1.0,3.0,56,0.00,,---,0.00,VWS V14.01,2013-01-19 01:03:00,
2013-01-18 19:08:00,41.3,27.2,30.25,SSE,162,0.0,4.0,57,0.00,,---,0.00,VWS V14.01,2013-01-19 01:08:00,
2013-01-18 19:13:00,41.1,27.0,30.25,SSE,161,0.0,4.0,57,0.00,,---,0.00,VWS V14.01,2013-01-19 01:13:00,
2013-01-18 19:18:00,41.0,27.0,30.25,South,170,0.0,4.0,57,0.00,,---,0.00,VWS V14.01,2013-01-19 01:18:00,
2013-01-18 19:23:00,40.9,26.9,30.25,SSE,158,0.0,5.0,57,0.00,,---,0.00,VWS V14.01,2013-01-19 01:23:00,
2013-01-18 19:28:00,40.8,26.8,30.25,South,183,2.0,5.0,57,0.00,,---,0.00,VWS V14.01,2013-01-19 01:28:00,
2013-01-18 19:33:00,40.8,26.8,30.25,South,182,0.0,3.0,57,0.00,,---,0.00,VWS V14.01,2013-01-19 01:33:00,
2013-01-18 19:38:00,40.7,26.7,30.25,South,174,0.0,3.0,57,0.00,,---,0.00,VWS V14.01,2013-01-19 01:38:00,
2013-01-18 19:43:00,40.5,26.9,30.25,SSE,163,0.0,4.0,58,0.00,,---,0.00,VWS V14.01,2013-01-19 01:43:00,
2013-01-18 19:47:00,40.5,26.9,30.25,SSE,168,2.0,5.0,58,0.00,,---,0.00,VWS V14.01,2013-01-19 01:47:00,
2013-01-18 19:52:00,40.4,26.8,30.25,SSE,157,0.0,5.0,58,0.00,,---,0.00,VWS V14.01,2013-01-19 01:52:00,
2013-01-18 19:57:00,40.4,26.8,30.25,SSE,152,0.0,5.0,58,0.00,,---,0.00,VWS V14.01,2013-01-19 01:57:00,
2013-01-18 20:02:00,40.3,27.1,30.25,South,188,0.0,5.0,59,0.00,,---,0.00,VWS V14.01,2013-01-19 02:02:00,
2013-01-18 20:07:00,40.3,27.1,30.25,SSE,157,2.0,5.0,59,0.00,,---,0.00,VWS V14.01,2013-01-19 02:07:00,
2013-01-18 20:12:00,40.2,27.0,30.25,South,181,0.0,5.0,59,0.00,,---,0.00,VWS V14.01,2013-01-19 02:12:00,
2013-01-18 20:17:00,40.1,26.9,30.25,South,171,0.0,5.0,59,0.00,,---,0.00,VWS V14.01,2013-01-19 02:17:00,
2013-01-18 20:22:00,40.0,27.2,30.25,South,184,0.0,5.0,60,0.00,,---,0.00,VWS V14.01,2013-01-19 02:22:00,
2013-01-18 20:27:00,39.8,27.1,30.25,South,173,1.0,5.0,60,0.00,,---,0.00,VWS V14.01,2013-01-19 02:27:00,
2013-01-18 20:32:00,39.7,27.0,30.24,SSW,206,2.0,2.0,60,0.00,,---,0.00,VWS V14.01,2013-01-19 02:32:00,
2013-01-18 20:37:00,39.6,27.3,30.24,South,170,2.0,6.0,61,0.00,,---,0.00,VWS V14.01,2013-01-19 02:37:00,
2013-01-18 20:42:00,39.7,27.0,30.24,SSW,195,0.0,6.0,60,0.00,,---,0.00,VWS V14.01,2013-01-19 02:42:00,
2013-01-18 20:48:00,39.6,26.9,30.24,SSE,151,2.0,6.0,60,0.00,,---,0.00,VWS V14.01,2013-01-19 02:48:00,
2013-01-18 20:53:00,39.7,27.0,30.24,SSE,161,1.0,6.0,60,0.00,,---,0.00,VWS V14.01,2013-01-19 02:53:00,
2013-01-18 20:58:00,39.7,27.4,30.24,South,191,6.0,6.0,61,0.00,,---,0.00,VWS V14.01,2013-01-19 02:58:00,
2013-01-18 21:03:00,39.7,27.4,30.23,South,171,1.0,3.0,61,0.00,,---,0.00,VWS V14.01,2013-01-19 03:03:00,
2013-01-18 21:08:00,39.6,27.3,30.23,South,181,4.0,6.0,61,0.00,,---,0.00,VWS V14.01,2013-01-19 03:08:00,
2013-01-18 21:13:00,39.6,27.7,30.23,South,171,0.0,6.0,62,0.00,,---,0.00,VWS V14.01,2013-01-19 03:13:00,
2013-01-18 21:18:00,39.6,27.7,30.23,SE,146,6.0,10.0,62,0.00,,---,0.00,VWS V14.01,2013-01-19 03:18:00,
2013-01-18 21:23:00,39.6,27.7,30.23,SSE,160,0.0,10.0,62,0.00,,---,0.00,VWS V14.01,2013-01-19 03:23:00,
2013-01-18 21:28:00,39.6,27.7,30.23,South,178,0.0,10.0,62,0.00,,---,0.00,VWS V14.01,2013-01-19 03:28:00,
2013-01-18 21:33:00,39.5,28.0,30.23,South,188,1.0,4.0,63,0.00,,---,0.00,VWS V14.01,2013-01-19 03:33:00,
2013-01-18 21:38:00,39.4,27.9,30.23,SSE,168,0.0,4.0,63,0.00,,---,0.00,VWS V14.01,2013-01-19 03:38:00,
2013-01-18 21:43:00,39.4,27.9,30.23,SSE,166,0.0,4.0,63,0.00,,---,0.00,VWS V14.01,2013-01-19 03:43:00,
2013-01-18 21:48:00,39.3,28.2,30.23,South,169,0.0,4.0,64,0.00,,---,0.00,VWS V14.01,2013-01-19 03:48:00,
2013-01-18 21:53:00,39.4,28.2,30.23,South,178,4.0,7.0,64,0.00,,---,0.00,VWS V14.01,2013-01-19 03:53:00,
2013-01-18 21:58:00,39.5,28.0,30.23,SSW,203,0.0,7.0,63,0.00,,---,0.00,VWS V14.01,2013-01-19 03:58:00,
2013-01-18 22:03:00,39.5,28.0,30.22,SSW,196,2.0,8.0,63,0.00,,---,0.00,VWS V14.01,2013-01-19 04:03:00,
2013-01-18 22:08:00,39.6,28.4,30.22,SSW,211,4.0,8.0,64,0.00,,---,0.00,VWS V14.01,2013-01-19 04:08:00,
2013-01-18 22:13:00,39.5,28.0,30.22,South,182,0.0,8.0,63,0.00,,---,0.00,VWS V14.01,2013-01-19 04:13:00,
2013-01-18 22:18:00,39.5,28.0,30.21,South,180,4.0,9.0,63,0.00,,---,0.00,VWS V14.01,2013-01-19 04:18:00,
2013-01-18 22:23:00,39.6,28.1,30.21,South,176,0.0,9.0,63,0.00,,---,0.00,VWS V14.01,2013-01-19 04:23:00,
2013-01-18 22:28:00,39.6,28.1,30.21,South,188,2.0,9.0,63,0.00,,---,0.00,VWS V14.01,2013-01-19 04:28:00,
2013-01-18 22:33:00,39.6,28.1,30.20,SSE,165,1.0,6.0,63,0.00,,---,0.00,VWS V14.01,2013-01-19 04:33:00,
2013-01-18 22:38:00,39.7,28.1,30.20,SW,214,0.0,6.0,63,0.00,,---,0.00,VWS V14.01,2013-01-19 04:38:00,
2013-01-18 22:43:00,39.9,28.3,30.20,South,185,3.0,7.0,63,0.00,,---,0.00,VWS V14.01,2013-01-19 04:43:00,
2013-01-18 22:48:00,39.8,28.2,30.20,WSW,254,5.0,7.0,63,0.00,,---,0.00,VWS V14.01,2013-01-19 04:48:00,
2013-01-18 22:53:00,39.8,28.2,30.20,SSW,205,0.0,7.0,63,0.00,,---,0.00,VWS V14.01,2013-01-19 04:53:00,
2013-01-18 22:58:00,39.8,28.2,30.20,SSW,196,1.0,7.0,63,0.00,,---,0.00,VWS V14.01,2013-01-19 04:58:00,
2013-01-18 23:00:00,39.8,28.2,30.20,South,187,2.0,7.0,63,0.00,,---,0.00,VWS V14.01,2013-01-19 05:00:00,
2013-01-18 23:01:00,39.8,28.2,30.19,SSE,168,0.0,7.0,63,0.00,,---,0.00,VWS V14.01,2013-01-19 05:01:00,
2013-01-18 23:03:00,39.8,28.2,30.19,SSE,150,3.0,5.0,63,0.00,,---,0.00,VWS V14.01,2013-01-19 05:03:00,
2013-01-18 23:08:00,39.8,28.2,30.19,South,180,0.0,7.0,63,0.00,,---,0.00,VWS V14.01,2013-01-19 05:08:00,
2013-01-18 23:13:00,39.7,28.1,30.19,South,182,2.0,7.0,63,0.00,,---,0.00,VWS V14.01,2013-01-19 05:13:00,
2013-01-18 23:18:00,39.7,28.1,30.19,South,191,2.0,7.0,63,0.00,,---,0.00,VWS V14.01,2013-01-19 05:18:00,
2013-01-18 23:23:00,39.8,28.2,30.19,SSW,201,4.0,7.0,63,0.00,,---,0.00,VWS V14.01,2013-01-19 05:23:00,
2013-01-18 23:28:00,39.9,28.3,30.19,SSE,161,2.0,7.0,63,0.00,,---,0.00,VWS V14.01,2013-01-19 05:28:00,
2013-01-18 23:33:00,40.0,28.0,30.19,SSW,192,2.0,3.0,62,0.00,,---,0.00,VWS V14.01,2013-01-19 05:33:00,
2013-01-18 23:38:00,40.0,28.0,30.19,South,191,2.0,7.0,62,0.00,,---,0.00,VWS V14.01,2013-01-19 05:38:00,
2013-01-18 23:43:00,40.1,28.1,30.19,SSW,200,0.0,9.0,62,0.00,,---,0.00,VWS V14.01,2013-01-19 05:43:00,
2013-01-18 23:48:00,40.2,28.6,30.19,SSE,162,0.0,9.0,63,0.00,,---,0.00,VWS V14.01,2013-01-19 05:48:00,
2013-01-18 23:53:00,40.3,28.7,30.19,SSW,198,2.0,9.0,63,0.00,,---,0.00,VWS V14.01,2013-01-19 05:53:00,
2013-01-18 23:58:00,40.4,28.4,30.19,SE,146,5.0,10.0,62,0.00,,---,0.00,VWS V14.01,2013-01-19 05:58:00,